sensor_id;sensor_type;location;lat;lon;timestamp;P1;durP1;ratioP1;P2;durP2;ratioP2
33160;SDS011;19522;45.656;11.302;2022-10-31T00:00:52;12.10;;;3.67;;
33160;SDS011;19522;45.656;11.302;2022-10-31T00:03:17;9.75;;;3.85;;
33160;SDS011;19522;45.656;11.302;2022-10-31T00:05:47;11.73;;;3.72;;
33160;SDS011;19522;45.656;11.302;2022-10-31T00:08:14;9.90;;;3.55;;
33160;SDS011;19522;45.656;11.302;2022-10-31T00:10:40;11.70;;;3.30;;
33160;SDS011;19522;45.656;11.302;2022-10-31T00:13:10;9.80;;;3.75;;
33160;SDS011;19522;45.656;11.302;2022-10-31T00:15:40;12.38;;;3.78;;
33160;SDS011;19522;45.656;11.302;2022-10-31T00:18:06;8.75;;;3.10;;
33160;SDS011;19522;45.656;11.302;2022-10-31T00:20:33;7.68;;;2.78;;
33160;SDS011;19522;45.656;11.302;2022-10-31T00:23:00;12.02;;;3.28;;
33160;SDS011;19522;45.656;11.302;2022-10-31T00:25:26;6.47;;;3.40;;
33160;SDS011;19522;45.656;11.302;2022-10-31T00:27:58;9.10;;;3.72;;
33160;SDS011;19522;45.656;11.302;2022-10-31T00:30:23;13.05;;;3.90;;
33160;SDS011;19522;45.656;11.302;2022-10-31T00:32:49;10.40;;;3.35;;
33160;SDS011;19522;45.656;11.302;2022-10-31T00:35:14;8.45;;;2.95;;
33160;SDS011;19522;45.656;11.302;2022-10-31T00:37:40;12.20;;;3.25;;
33160;SDS011;19522;45.656;11.302;2022-10-31T00:40:06;10.20;;;3.42;;
33160;SDS011;19522;45.656;11.302;2022-10-31T00:42:32;8.90;;;3.05;;
33160;SDS011;19522;45.656;11.302;2022-10-31T00:44:57;6.90;;;3.00;;
33160;SDS011;19522;45.656;11.302;2022-10-31T00:47:23;15.15;;;3.65;;
33160;SDS011;19522;45.656;11.302;2022-10-31T00:49:48;9.32;;;3.60;;
33160;SDS011;19522;45.656;11.302;2022-10-31T00:52:14;10.35;;;3.03;;
33160;SDS011;19522;45.656;11.302;2022-10-31T00:54:39;10.13;;;3.08;;
33160;SDS011;19522;45.656;11.302;2022-10-31T00:57:05;14.18;;;3.33;;
33160;SDS011;19522;45.656;11.302;2022-10-31T00:59:31;10.65;;;2.72;;
33160;SDS011;19522;45.656;11.302;2022-10-31T01:01:56;11.25;;;3.20;;
33160;SDS011;19522;45.656;11.302;2022-10-31T01:04:22;10.00;;;3.10;;
33160;SDS011;19522;45.656;11.302;2022-10-31T01:06:48;7.97;;;3.65;;
33160;SDS011;19522;45.656;11.302;2022-10-31T01:09:13;15.45;;;3.63;;
33160;SDS011;19522;45.656;11.302;2022-10-31T01:11:39;10.35;;;3.22;;
33160;SDS011;19522;45.656;11.302;2022-10-31T01:14:04;8.35;;;3.28;;
33160;SDS011;19522;45.656;11.302;2022-10-31T01:16:30;6.70;;;3.63;;
33160;SDS011;19522;45.656;11.302;2022-10-31T01:18:55;9.18;;;3.20;;
33160;SDS011;19522;45.656;11.302;2022-10-31T01:21:22;12.73;;;3.08;;
33160;SDS011;19522;45.656;11.302;2022-10-31T01:23:52;10.07;;;3.35;;
33160;SDS011;19522;45.656;11.302;2022-10-31T01:26:23;7.82;;;3.22;;
33160;SDS011;19522;45.656;11.302;2022-10-31T01:28:52;6.85;;;3.85;;
33160;SDS011;19522;45.656;11.302;2022-10-31T01:31:26;12.45;;;3.75;;
33160;SDS011;19522;45.656;11.302;2022-10-31T01:33:53;13.45;;;3.92;;
33160;SDS011;19522;45.656;11.302;2022-10-31T01:36:21;8.85;;;3.33;;
33160;SDS011;19522;45.656;11.302;2022-10-31T01:38:49;10.05;;;3.50;;
33160;SDS011;19522;45.656;11.302;2022-10-31T01:41:17;8.18;;;3.08;;
33160;SDS011;19522;45.656;11.302;2022-10-31T01:43:49;11.23;;;3.38;;
33160;SDS011;19522;45.656;11.302;2022-10-31T01:46:23;10.15;;;3.08;;
33160;SDS011;19522;45.656;11.302;2022-10-31T01:48:57;11.23;;;3.15;;
33160;SDS011;19522;45.656;11.302;2022-10-31T01:51:26;9.65;;;3.55;;
33160;SDS011;19522;45.656;11.302;2022-10-31T01:53:55;9.13;;;3.35;;
33160;SDS011;19522;45.656;11.302;2022-10-31T01:56:25;8.38;;;3.47;;
33160;SDS011;19522;45.656;11.302;2022-10-31T01:58:51;11.13;;;3.20;;
33160;SDS011;19522;45.656;11.302;2022-10-31T02:01:19;7.40;;;2.90;;
33160;SDS011;19522;45.656;11.302;2022-10-31T02:03:44;12.02;;;3.38;;
33160;SDS011;19522;45.656;11.302;2022-10-31T02:06:19;8.82;;;2.97;;
33160;SDS011;19522;45.656;11.302;2022-10-31T02:08:52;9.05;;;3.30;;
33160;SDS011;19522;45.656;11.302;2022-10-31T02:11:19;9.70;;;2.83;;
33160;SDS011;19522;45.656;11.302;2022-10-31T02:13:44;8.60;;;2.50;;
33160;SDS011;19522;45.656;11.302;2022-10-31T02:16:12;10.15;;;2.63;;
33160;SDS011;19522;45.656;11.302;2022-10-31T02:18:37;7.20;;;2.50;;
33160;SDS011;19522;45.656;11.302;2022-10-31T02:30:03;11.10;;;3.25;;
33160;SDS011;19522;45.656;11.302;2022-10-31T02:35:56;9.23;;;2.88;;
33160;SDS011;19522;45.656;11.302;2022-10-31T02:46:14;7.85;;;2.80;;
33160;SDS011;19522;45.656;11.302;2022-10-31T02:48:50;8.93;;;2.90;;
33160;SDS011;19522;45.656;11.302;2022-10-31T02:51:20;12.52;;;3.13;;
33160;SDS011;19522;45.656;11.302;2022-10-31T02:53:46;9.27;;;3.15;;
33160;SDS011;19522;45.656;11.302;2022-10-31T02:56:16;9.20;;;2.50;;
33160;SDS011;19522;45.656;11.302;2022-10-31T02:58:44;9.68;;;2.83;;
33160;SDS011;19522;45.656;11.302;2022-10-31T03:01:21;7.13;;;2.70;;
33160;SDS011;19522;45.656;11.302;2022-10-31T03:11:58;10.85;;;3.03;;
33160;SDS011;19522;45.656;11.302;2022-10-31T03:17:36;9.70;;;3.17;;
33160;SDS011;19522;45.656;11.302;2022-10-31T03:20:04;5.13;;;2.53;;
33160;SDS011;19522;45.656;11.302;2022-10-31T03:22:34;12.82;;;3.00;;
33160;SDS011;19522;45.656;11.302;2022-10-31T03:25:03;9.20;;;2.10;;
33160;SDS011;19522;45.656;11.302;2022-10-31T03:27:30;10.02;;;2.85;;
33160;SDS011;19522;45.656;11.302;2022-10-31T03:30:00;10.30;;;3.00;;
33160;SDS011;19522;45.656;11.302;2022-10-31T03:32:32;13.07;;;3.05;;
33160;SDS011;19522;45.656;11.302;2022-10-31T03:35:07;8.45;;;2.67;;
33160;SDS011;19522;45.656;11.302;2022-10-31T03:37:38;7.90;;;2.90;;
33160;SDS011;19522;45.656;11.302;2022-10-31T03:40:06;10.18;;;3.45;;
33160;SDS011;19522;45.656;11.302;2022-10-31T03:42:34;8.65;;;3.35;;
33160;SDS011;19522;45.656;11.302;2022-10-31T03:45:05;12.57;;;3.35;;
33160;SDS011;19522;45.656;11.302;2022-10-31T03:47:38;6.82;;;2.80;;
33160;SDS011;19522;45.656;11.302;2022-10-31T03:50:07;9.20;;;2.40;;
33160;SDS011;19522;45.656;11.302;2022-10-31T03:52:43;10.60;;;2.90;;
33160;SDS011;19522;45.656;11.302;2022-10-31T03:55:30;9.65;;;2.80;;
33160;SDS011;19522;45.656;11.302;2022-10-31T03:58:05;10.63;;;2.70;;
33160;SDS011;19522;45.656;11.302;2022-10-31T04:00:34;10.18;;;2.50;;
33160;SDS011;19522;45.656;11.302;2022-10-31T04:03:17;8.48;;;3.28;;
33160;SDS011;19522;45.656;11.302;2022-10-31T04:05:48;11.37;;;3.33;;
33160;SDS011;19522;45.656;11.302;2022-10-31T04:08:17;6.32;;;2.63;;
33160;SDS011;19522;45.656;11.302;2022-10-31T04:10:50;11.30;;;2.88;;
33160;SDS011;19522;45.656;11.302;2022-10-31T04:13:19;10.93;;;2.75;;
33160;SDS011;19522;45.656;11.302;2022-10-31T04:15:48;7.38;;;2.15;;
33160;SDS011;19522;45.656;11.302;2022-10-31T04:18:17;7.35;;;2.50;;
33160;SDS011;19522;45.656;11.302;2022-10-31T04:20:42;11.60;;;2.63;;
33160;SDS011;19522;45.656;11.302;2022-10-31T04:23:14;7.07;;;2.40;;
33160;SDS011;19522;45.656;11.302;2022-10-31T04:25:47;7.57;;;2.78;;
33160;SDS011;19522;45.656;11.302;2022-10-31T04:28:12;8.35;;;2.55;;
33160;SDS011;19522;45.656;11.302;2022-10-31T04:30:38;7.97;;;2.47;;
33160;SDS011;19522;45.656;11.302;2022-10-31T04:33:03;13.07;;;2.60;;
33160;SDS011;19522;45.656;11.302;2022-10-31T04:35:29;5.82;;;2.45;;
33160;SDS011;19522;45.656;11.302;2022-10-31T04:37:54;10.35;;;3.10;;
33160;SDS011;19522;45.656;11.302;2022-10-31T04:40:20;6.55;;;2.28;;
33160;SDS011;19522;45.656;11.302;2022-10-31T04:42:45;9.27;;;2.50;;
33160;SDS011;19522;45.656;11.302;2022-10-31T04:45:11;12.93;;;2.72;;
33160;SDS011;19522;45.656;11.302;2022-10-31T04:47:36;9.85;;;2.50;;
33160;SDS011;19522;45.656;11.302;2022-10-31T04:50:02;11.50;;;3.42;;
33160;SDS011;19522;45.656;11.302;2022-10-31T04:52:28;8.05;;;2.28;;
33160;SDS011;19522;45.656;11.302;2022-10-31T04:54:54;9.40;;;2.78;;
33160;SDS011;19522;45.656;11.302;2022-10-31T04:57:19;6.47;;;2.55;;
33160;SDS011;19522;45.656;11.302;2022-10-31T04:59:45;13.27;;;2.65;;
33160;SDS011;19522;45.656;11.302;2022-10-31T05:02:10;5.97;;;3.08;;
33160;SDS011;19522;45.656;11.302;2022-10-31T05:04:36;11.55;;;2.25;;
33160;SDS011;19522;45.656;11.302;2022-10-31T05:07:01;10.13;;;2.60;;
33160;SDS011;19522;45.656;11.302;2022-10-31T05:09:27;8.90;;;2.65;;
33160;SDS011;19522;45.656;11.302;2022-10-31T05:11:52;7.95;;;2.50;;
33160;SDS011;19522;45.656;11.302;2022-10-31T05:14:18;8.02;;;2.95;;
33160;SDS011;19522;45.656;11.302;2022-10-31T05:16:47;13.55;;;2.72;;
33160;SDS011;19522;45.656;11.302;2022-10-31T05:19:12;7.18;;;2.75;;
33160;SDS011;19522;45.656;11.302;2022-10-31T05:21:38;10.38;;;2.30;;
33160;SDS011;19522;45.656;11.302;2022-10-31T05:24:03;6.10;;;2.42;;
33160;SDS011;19522;45.656;11.302;2022-10-31T05:26:29;9.60;;;2.65;;
33160;SDS011;19522;45.656;11.302;2022-10-31T05:28:55;9.23;;;2.33;;
33160;SDS011;19522;45.656;11.302;2022-10-31T05:31:20;13.18;;;3.38;;
33160;SDS011;19522;45.656;11.302;2022-10-31T05:33:46;11.57;;;3.55;;
33160;SDS011;19522;45.656;11.302;2022-10-31T05:36:11;10.35;;;3.88;;
33160;SDS011;19522;45.656;11.302;2022-10-31T05:38:37;10.70;;;3.20;;
33160;SDS011;19522;45.656;11.302;2022-10-31T05:41:02;10.43;;;3.78;;
33160;SDS011;19522;45.656;11.302;2022-10-31T05:43:28;10.02;;;2.83;;
33160;SDS011;19522;45.656;11.302;2022-10-31T05:45:54;10.43;;;3.22;;
33160;SDS011;19522;45.656;11.302;2022-10-31T05:48:20;8.50;;;2.60;;
33160;SDS011;19522;45.656;11.302;2022-10-31T05:50:47;7.47;;;2.55;;
33160;SDS011;19522;45.656;11.302;2022-10-31T05:53:13;11.75;;;3.08;;
33160;SDS011;19522;45.656;11.302;2022-10-31T05:55:40;8.93;;;2.78;;
33160;SDS011;19522;45.656;11.302;2022-10-31T05:58:06;9.20;;;2.70;;
33160;SDS011;19522;45.656;11.302;2022-10-31T06:00:31;8.95;;;2.70;;
33160;SDS011;19522;45.656;11.302;2022-10-31T06:03:00;5.97;;;2.47;;
33160;SDS011;19522;45.656;11.302;2022-10-31T06:05:27;9.43;;;2.63;;
33160;SDS011;19522;45.656;11.302;2022-10-31T06:07:54;10.65;;;2.67;;
33160;SDS011;19522;45.656;11.302;2022-10-31T06:10:19;6.78;;;2.50;;
33160;SDS011;19522;45.656;11.302;2022-10-31T06:12:47;12.25;;;2.53;;
33160;SDS011;19522;45.656;11.302;2022-10-31T06:15:14;9.23;;;3.13;;
33160;SDS011;19522;45.656;11.302;2022-10-31T06:17:40;8.23;;;2.47;;
33160;SDS011;19522;45.656;11.302;2022-10-31T06:20:06;11.50;;;2.78;;
33160;SDS011;19522;45.656;11.302;2022-10-31T06:22:32;9.25;;;2.67;;
33160;SDS011;19522;45.656;11.302;2022-10-31T06:24:58;14.98;;;3.10;;
33160;SDS011;19522;45.656;11.302;2022-10-31T06:27:24;9.13;;;3.20;;
33160;SDS011;19522;45.656;11.302;2022-10-31T06:29:50;8.30;;;2.70;;
33160;SDS011;19522;45.656;11.302;2022-10-31T06:32:16;8.15;;;2.55;;
33160;SDS011;19522;45.656;11.302;2022-10-31T06:34:42;6.63;;;2.50;;
33160;SDS011;19522;45.656;11.302;2022-10-31T06:37:09;17.25;;;3.25;;
33160;SDS011;19522;45.656;11.302;2022-10-31T06:39:36;9.48;;;2.92;;
33160;SDS011;19522;45.656;11.302;2022-10-31T06:42:02;9.35;;;2.80;;
33160;SDS011;19522;45.656;11.302;2022-10-31T06:44:28;12.05;;;2.80;;
33160;SDS011;19522;45.656;11.302;2022-10-31T06:46:54;7.28;;;2.75;;
33160;SDS011;19522;45.656;11.302;2022-10-31T06:49:19;15.27;;;3.55;;
33160;SDS011;19522;45.656;11.302;2022-10-31T06:51:48;15.38;;;3.45;;
33160;SDS011;19522;45.656;11.302;2022-10-31T06:54:14;11.52;;;2.80;;
33160;SDS011;19522;45.656;11.302;2022-10-31T06:56:40;7.80;;;2.65;;
33160;SDS011;19522;45.656;11.302;2022-10-31T06:59:06;9.02;;;2.67;;
33160;SDS011;19522;45.656;11.302;2022-10-31T07:01:32;9.73;;;3.00;;
33160;SDS011;19522;45.656;11.302;2022-10-31T07:03:57;10.20;;;3.25;;
33160;SDS011;19522;45.656;11.302;2022-10-31T07:06:23;9.88;;;3.35;;
33160;SDS011;19522;45.656;11.302;2022-10-31T07:08:48;15.75;;;4.43;;
33160;SDS011;19522;45.656;11.302;2022-10-31T07:11:14;11.00;;;3.20;;
33160;SDS011;19522;45.656;11.302;2022-10-31T07:13:40;11.00;;;3.38;;
33160;SDS011;19522;45.656;11.302;2022-10-31T07:16:06;10.00;;;3.50;;
33160;SDS011;19522;45.656;11.302;2022-10-31T07:18:32;11.93;;;3.35;;
33160;SDS011;19522;45.656;11.302;2022-10-31T07:20:58;12.18;;;2.97;;
33160;SDS011;19522;45.656;11.302;2022-10-31T07:23:24;11.90;;;3.28;;
33160;SDS011;19522;45.656;11.302;2022-10-31T07:25:54;9.85;;;3.28;;
33160;SDS011;19522;45.656;11.302;2022-10-31T07:28:24;14.18;;;3.72;;
33160;SDS011;19522;45.656;11.302;2022-10-31T07:30:51;10.35;;;2.65;;
33160;SDS011;19522;45.656;11.302;2022-10-31T07:33:17;10.68;;;2.63;;
33160;SDS011;19522;45.656;11.302;2022-10-31T07:35:43;8.70;;;3.20;;
33160;SDS011;19522;45.656;11.302;2022-10-31T07:38:09;9.93;;;2.85;;
33160;SDS011;19522;45.656;11.302;2022-10-31T07:40:36;10.18;;;3.33;;
33160;SDS011;19522;45.656;11.302;2022-10-31T07:43:01;9.52;;;3.15;;
33160;SDS011;19522;45.656;11.302;2022-10-31T07:45:27;7.93;;;3.00;;
33160;SDS011;19522;45.656;11.302;2022-10-31T07:47:53;10.10;;;3.83;;
33160;SDS011;19522;45.656;11.302;2022-10-31T07:50:19;9.18;;;2.88;;
33160;SDS011;19522;45.656;11.302;2022-10-31T07:52:57;12.38;;;3.33;;
33160;SDS011;19522;45.656;11.302;2022-10-31T07:55:30;11.55;;;3.05;;
33160;SDS011;19522;45.656;11.302;2022-10-31T07:58:03;12.25;;;3.00;;
33160;SDS011;19522;45.656;11.302;2022-10-31T08:00:31;10.00;;;2.72;;
33160;SDS011;19522;45.656;11.302;2022-10-31T08:02:58;9.32;;;3.00;;
33160;SDS011;19522;45.656;11.302;2022-10-31T08:05:31;10.38;;;3.20;;
33160;SDS011;19522;45.656;11.302;2022-10-31T08:07:57;7.20;;;2.90;;
33160;SDS011;19522;45.656;11.302;2022-10-31T08:10:23;10.55;;;3.45;;
33160;SDS011;19522;45.656;11.302;2022-10-31T08:13:00;11.80;;;2.60;;
33160;SDS011;19522;45.656;11.302;2022-10-31T08:15:27;9.55;;;2.95;;
33160;SDS011;19522;45.656;11.302;2022-10-31T08:17:54;10.27;;;3.15;;
33160;SDS011;19522;45.656;11.302;2022-10-31T08:20:19;11.98;;;3.17;;
33160;SDS011;19522;45.656;11.302;2022-10-31T08:23:19;6.55;;;3.10;;
33160;SDS011;19522;45.656;11.302;2022-10-31T08:25:38;8.98;;;3.28;;
33160;SDS011;19522;45.656;11.302;2022-10-31T08:28:05;9.68;;;3.15;;
33160;SDS011;19522;45.656;11.302;2022-10-31T08:30:32;7.90;;;2.67;;
33160;SDS011;19522;45.656;11.302;2022-10-31T08:33:03;11.45;;;2.40;;
33160;SDS011;19522;45.656;11.302;2022-10-31T08:35:29;10.23;;;3.17;;
33160;SDS011;19522;45.656;11.302;2022-10-31T08:37:56;10.77;;;3.20;;
33160;SDS011;19522;45.656;11.302;2022-10-31T08:40:23;9.02;;;2.67;;
33160;SDS011;19522;45.656;11.302;2022-10-31T08:42:56;8.65;;;2.45;;
33160;SDS011;19522;45.656;11.302;2022-10-31T08:45:22;8.30;;;3.40;;
33160;SDS011;19522;45.656;11.302;2022-10-31T08:47:48;8.63;;;2.60;;
33160;SDS011;19522;45.656;11.302;2022-10-31T08:50:13;9.27;;;2.90;;
33160;SDS011;19522;45.656;11.302;2022-10-31T08:52:39;13.55;;;3.42;;
33160;SDS011;19522;45.656;11.302;2022-10-31T08:55:04;9.32;;;3.42;;
33160;SDS011;19522;45.656;11.302;2022-10-31T08:57:30;8.98;;;3.20;;
33160;SDS011;19522;45.656;11.302;2022-10-31T08:59:56;10.60;;;3.72;;
33160;SDS011;19522;45.656;11.302;2022-10-31T09:02:21;9.02;;;3.38;;
33160;SDS011;19522;45.656;11.302;2022-10-31T09:04:47;16.75;;;7.28;;
33160;SDS011;19522;45.656;11.302;2022-10-31T09:07:12;11.50;;;4.35;;
33160;SDS011;19522;45.656;11.302;2022-10-31T09:09:37;8.95;;;2.45;;
33160;SDS011;19522;45.656;11.302;2022-10-31T09:12:03;7.38;;;2.65;;
33160;SDS011;19522;45.656;11.302;2022-10-31T09:14:29;12.82;;;2.70;;
33160;SDS011;19522;45.656;11.302;2022-10-31T09:16:54;21.85;;;10.27;;
33160;SDS011;19522;45.656;11.302;2022-10-31T09:19:20;9.27;;;3.67;;
33160;SDS011;19522;45.656;11.302;2022-10-31T09:21:46;10.07;;;2.65;;
33160;SDS011;19522;45.656;11.302;2022-10-31T09:24:11;5.65;;;2.40;;
33160;SDS011;19522;45.656;11.302;2022-10-31T09:26:37;11.13;;;2.97;;
33160;SDS011;19522;45.656;11.302;2022-10-31T09:29:02;10.70;;;3.10;;
33160;SDS011;19522;45.656;11.302;2022-10-31T09:31:28;13.88;;;2.97;;
33160;SDS011;19522;45.656;11.302;2022-10-31T09:33:54;8.07;;;2.95;;
33160;SDS011;19522;45.656;11.302;2022-10-31T09:36:20;8.68;;;3.05;;
33160;SDS011;19522;45.656;11.302;2022-10-31T09:38:46;11.48;;;3.25;;
33160;SDS011;19522;45.656;11.302;2022-10-31T09:41:19;9.95;;;2.47;;
33160;SDS011;19522;45.656;11.302;2022-10-31T09:44:02;11.50;;;3.20;;
33160;SDS011;19522;45.656;11.302;2022-10-31T09:52:18;11.07;;;2.83;;
33160;SDS011;19522;45.656;11.302;2022-10-31T09:54:59;12.35;;;3.20;;
33160;SDS011;19522;45.656;11.302;2022-10-31T09:57:31;9.98;;;2.75;;
33160;SDS011;19522;45.656;11.302;2022-10-31T09:59:59;10.18;;;3.13;;
33160;SDS011;19522;45.656;11.302;2022-10-31T10:02:46;11.20;;;3.45;;
33160;SDS011;19522;45.656;11.302;2022-10-31T10:05:19;16.30;;;4.10;;
33160;SDS011;19522;45.656;11.302;2022-10-31T10:07:53;13.70;;;3.70;;
33160;SDS011;19522;45.656;11.302;2022-10-31T10:21:41;10.02;;;3.15;;
33160;SDS011;19522;45.656;11.302;2022-10-31T10:30:16;13.15;;;3.42;;
33160;SDS011;19522;45.656;11.302;2022-10-31T10:32:46;13.80;;;3.97;;
33160;SDS011;19522;45.656;11.302;2022-10-31T10:35:20;16.85;;;3.90;;
33160;SDS011;19522;45.656;11.302;2022-10-31T10:37:50;13.63;;;3.77;;
33160;SDS011;19522;45.656;11.302;2022-10-31T10:40:26;8.57;;;3.58;;
33160;SDS011;19522;45.656;11.302;2022-10-31T10:43:01;12.32;;;4.05;;
33160;SDS011;19522;45.656;11.302;2022-10-31T10:45:50;10.27;;;4.30;;
33160;SDS011;19522;45.656;11.302;2022-10-31T10:48:45;12.98;;;3.92;;
33160;SDS011;19522;45.656;11.302;2022-10-31T10:51:22;14.95;;;5.05;;
33160;SDS011;19522;45.656;11.302;2022-10-31T10:59:22;15.75;;;4.30;;
33160;SDS011;19522;45.656;11.302;2022-10-31T11:01:48;11.32;;;4.45;;
33160;SDS011;19522;45.656;11.302;2022-10-31T11:04:30;14.18;;;5.55;;
33160;SDS011;19522;45.656;11.302;2022-10-31T11:07:08;16.90;;;5.93;;
33160;SDS011;19522;45.656;11.302;2022-10-31T11:09:35;19.48;;;7.35;;
33160;SDS011;19522;45.656;11.302;2022-10-31T11:12:07;16.42;;;6.38;;
33160;SDS011;19522;45.656;11.302;2022-10-31T11:14:55;16.38;;;6.35;;
33160;SDS011;19522;45.656;11.302;2022-10-31T11:20:04;17.40;;;6.53;;
33160;SDS011;19522;45.656;11.302;2022-10-31T11:22:40;17.33;;;6.70;;
33160;SDS011;19522;45.656;11.302;2022-10-31T11:28:26;15.98;;;6.10;;
33160;SDS011;19522;45.656;11.302;2022-10-31T11:30:46;16.42;;;6.72;;
33160;SDS011;19522;45.656;11.302;2022-10-31T11:33:16;19.15;;;6.90;;
33160;SDS011;19522;45.656;11.302;2022-10-31T11:35:44;14.48;;;6.80;;
33160;SDS011;19522;45.656;11.302;2022-10-31T11:38:12;20.35;;;7.50;;
33160;SDS011;19522;45.656;11.302;2022-10-31T11:40:50;21.50;;;9.05;;
33160;SDS011;19522;45.656;11.302;2022-10-31T11:43:23;17.38;;;7.38;;
33160;SDS011;19522;45.656;11.302;2022-10-31T11:45:49;18.33;;;8.68;;
33160;SDS011;19522;45.656;11.302;2022-10-31T11:48:20;16.63;;;8.07;;
33160;SDS011;19522;45.656;11.302;2022-10-31T11:50:49;18.77;;;8.52;;
33160;SDS011;19522;45.656;11.302;2022-10-31T11:53:30;15.98;;;8.48;;
33160;SDS011;19522;45.656;11.302;2022-10-31T11:56:00;22.02;;;7.90;;
33160;SDS011;19522;45.656;11.302;2022-10-31T11:58:38;20.50;;;8.68;;
33160;SDS011;19522;45.656;11.302;2022-10-31T12:01:04;24.50;;;8.10;;
33160;SDS011;19522;45.656;11.302;2022-10-31T12:03:36;18.50;;;6.45;;
33160;SDS011;19522;45.656;11.302;2022-10-31T12:06:28;21.40;;;6.68;;
33160;SDS011;19522;45.656;11.302;2022-10-31T12:09:00;17.67;;;7.45;;
33160;SDS011;19522;45.656;11.302;2022-10-31T12:22:33;19.05;;;6.82;;
33160;SDS011;19522;45.656;11.302;2022-10-31T12:33:40;18.70;;;8.13;;
33160;SDS011;19522;45.656;11.302;2022-10-31T12:36:32;21.65;;;8.50;;
33160;SDS011;19522;45.656;11.302;2022-10-31T12:42:13;18.38;;;8.63;;
33160;SDS011;19522;45.656;11.302;2022-10-31T12:58:51;21.65;;;10.25;;
33160;SDS011;19522;45.656;11.302;2022-10-31T13:01:29;23.90;;;10.32;;
33160;SDS011;19522;45.656;11.302;2022-10-31T13:04:03;20.63;;;9.10;;
33160;SDS011;19522;45.656;11.302;2022-10-31T13:06:46;30.38;;;10.18;;
33160;SDS011;19522;45.656;11.302;2022-10-31T13:09:20;18.48;;;9.93;;
33160;SDS011;19522;45.656;11.302;2022-10-31T13:11:56;23.65;;;10.10;;
33160;SDS011;19522;45.656;11.302;2022-10-31T13:14:27;24.05;;;10.60;;
33160;SDS011;19522;45.656;11.302;2022-10-31T13:16:54;23.17;;;10.45;;
33160;SDS011;19522;45.656;11.302;2022-10-31T13:19:23;20.48;;;9.23;;
33160;SDS011;19522;45.656;11.302;2022-10-31T13:27:53;21.60;;;10.93;;
33160;SDS011;19522;45.656;11.302;2022-10-31T13:30:26;24.85;;;12.02;;
33160;SDS011;19522;45.656;11.302;2022-10-31T13:32:58;23.58;;;10.82;;
33160;SDS011;19522;45.656;11.302;2022-10-31T13:35:27;24.13;;;11.13;;
33160;SDS011;19522;45.656;11.302;2022-10-31T13:40:59;23.38;;;11.88;;
33160;SDS011;19522;45.656;11.302;2022-10-31T13:43:29;23.70;;;12.15;;
33160;SDS011;19522;45.656;11.302;2022-10-31T13:49:04;37.28;;;16.45;;
33160;SDS011;19522;45.656;11.302;2022-10-31T13:51:46;26.63;;;14.68;;
33160;SDS011;19522;45.656;11.302;2022-10-31T13:56:48;30.43;;;16.90;;
33160;SDS011;19522;45.656;11.302;2022-10-31T13:59:19;29.13;;;16.40;;
33160;SDS011;19522;45.656;11.302;2022-10-31T14:01:57;31.15;;;15.60;;
33160;SDS011;19522;45.656;11.302;2022-10-31T14:04:38;34.45;;;16.17;;
33160;SDS011;19522;45.656;11.302;2022-10-31T14:07:12;28.73;;;15.13;;
33160;SDS011;19522;45.656;11.302;2022-10-31T14:12:25;20.73;;;10.52;;
33160;SDS011;19522;45.656;11.302;2022-10-31T14:14:52;27.15;;;12.45;;
33160;SDS011;19522;45.656;11.302;2022-10-31T14:17:25;31.90;;;14.88;;
33160;SDS011;19522;45.656;11.302;2022-10-31T14:20:19;30.17;;;15.45;;
33160;SDS011;19522;45.656;11.302;2022-10-31T14:22:48;31.40;;;14.10;;
33160;SDS011;19522;45.656;11.302;2022-10-31T14:25:31;30.95;;;14.55;;
33160;SDS011;19522;45.656;11.302;2022-10-31T14:27:59;27.02;;;12.80;;
33160;SDS011;19522;45.656;11.302;2022-10-31T14:30:27;27.13;;;12.60;;
33160;SDS011;19522;45.656;11.302;2022-10-31T14:32:58;25.13;;;12.88;;
33160;SDS011;19522;45.656;11.302;2022-10-31T14:35:29;29.08;;;12.35;;
33160;SDS011;19522;45.656;11.302;2022-10-31T14:38:11;27.83;;;13.18;;
33160;SDS011;19522;45.656;11.302;2022-10-31T14:43:52;27.60;;;13.45;;
33160;SDS011;19522;45.656;11.302;2022-10-31T14:52:07;25.05;;;13.40;;
33160;SDS011;19522;45.656;11.302;2022-10-31T14:54:40;35.40;;;17.75;;
33160;SDS011;19522;45.656;11.302;2022-10-31T14:57:29;35.70;;;15.98;;
33160;SDS011;19522;45.656;11.302;2022-10-31T15:00:00;33.97;;;17.10;;
33160;SDS011;19522;45.656;11.302;2022-10-31T15:03:14;37.45;;;14.75;;
33160;SDS011;19522;45.656;11.302;2022-10-31T15:05:31;27.42;;;12.65;;
33160;SDS011;19522;45.656;11.302;2022-10-31T15:07:59;20.88;;;12.68;;
33160;SDS011;19522;45.656;11.302;2022-10-31T15:10:29;24.88;;;13.32;;
33160;SDS011;19522;45.656;11.302;2022-10-31T15:13:09;23.05;;;10.88;;
33160;SDS011;19522;45.656;11.302;2022-10-31T15:15:46;22.60;;;11.98;;
33160;SDS011;19522;45.656;11.302;2022-10-31T15:18:17;20.70;;;9.50;;
33160;SDS011;19522;45.656;11.302;2022-10-31T15:20:45;16.65;;;7.30;;
33160;SDS011;19522;45.656;11.302;2022-10-31T15:23:32;22.10;;;8.95;;
33160;SDS011;19522;45.656;11.302;2022-10-31T15:25:58;99.00;;;61.05;;
33160;SDS011;19522;45.656;11.302;2022-10-31T15:28:25;65.00;;;39.03;;
33160;SDS011;19522;45.656;11.302;2022-10-31T15:30:55;24.00;;;8.90;;
33160;SDS011;19522;45.656;11.302;2022-10-31T15:33:23;15.32;;;6.55;;
33160;SDS011;19522;45.656;11.302;2022-10-31T15:35:54;11.60;;;6.30;;
33160;SDS011;19522;45.656;11.302;2022-10-31T15:38:25;11.82;;;7.25;;
33160;SDS011;19522;45.656;11.302;2022-10-31T15:40:52;14.50;;;5.63;;
33160;SDS011;19522;45.656;11.302;2022-10-31T15:43:35;15.30;;;7.07;;
33160;SDS011;19522;45.656;11.302;2022-10-31T15:46:06;12.93;;;5.82;;
33160;SDS011;19522;45.656;11.302;2022-10-31T15:48:33;15.50;;;6.60;;
33160;SDS011;19522;45.656;11.302;2022-10-31T15:51:00;11.55;;;6.68;;
33160;SDS011;19522;45.656;11.302;2022-10-31T15:53:29;13.65;;;7.07;;
33160;SDS011;19522;45.656;11.302;2022-10-31T15:56:07;13.07;;;6.78;;
33160;SDS011;19522;45.656;11.302;2022-10-31T15:58:44;15.52;;;7.68;;
33160;SDS011;19522;45.656;11.302;2022-10-31T16:01:25;15.88;;;7.53;;
33160;SDS011;19522;45.656;11.302;2022-10-31T16:04:03;18.08;;;8.20;;
33160;SDS011;19522;45.656;11.302;2022-10-31T16:06:30;19.23;;;9.38;;
33160;SDS011;19522;45.656;11.302;2022-10-31T16:08:57;17.70;;;9.48;;
33160;SDS011;19522;45.656;11.302;2022-10-31T16:11:24;17.40;;;8.73;;
33160;SDS011;19522;45.656;11.302;2022-10-31T16:16:25;15.10;;;8.20;;
33160;SDS011;19522;45.656;11.302;2022-10-31T16:18:53;19.65;;;8.63;;
33160;SDS011;19522;45.656;11.302;2022-10-31T16:21:27;17.30;;;9.10;;
33160;SDS011;19522;45.656;11.302;2022-10-31T16:24:25;17.70;;;8.63;;
33160;SDS011;19522;45.656;11.302;2022-10-31T16:26:57;16.35;;;8.98;;
33160;SDS011;19522;45.656;11.302;2022-10-31T16:29:39;21.70;;;10.00;;
33160;SDS011;19522;45.656;11.302;2022-10-31T16:32:24;23.83;;;9.98;;
33160;SDS011;19522;45.656;11.302;2022-10-31T16:34:58;21.85;;;10.55;;
33160;SDS011;19522;45.656;11.302;2022-10-31T16:37:25;22.42;;;11.20;;
33160;SDS011;19522;45.656;11.302;2022-10-31T16:39:50;19.42;;;10.85;;
33160;SDS011;19522;45.656;11.302;2022-10-31T16:42:16;18.60;;;9.88;;
33160;SDS011;19522;45.656;11.302;2022-10-31T16:44:42;22.35;;;9.80;;
33160;SDS011;19522;45.656;11.302;2022-10-31T16:47:11;22.83;;;10.90;;
33160;SDS011;19522;45.656;11.302;2022-10-31T16:49:39;18.52;;;9.95;;